sensor_id;sensor_type;location;lat;lon;timestamp;pressure;altitude;pressure_sealevel;temperature;humidity
63556;BME280;49700;48.072;7.800;2023-07-29T00:00:49;98998.91;;;19.87;nan
63556;BME280;49700;48.072;7.800;2023-07-29T00:03:15;99006.41;;;19.83;nan
63556;BME280;49700;48.072;7.800;2023-07-29T00:05:40;99018.94;;;19.83;nan
63556;BME280;49700;48.072;7.800;2023-07-29T00:08:06;99013.09;;;19.79;nan
63556;BME280;49700;48.072;7.800;2023-07-29T00:10:32;98999.94;;;19.78;nan
63556;BME280;49700;48.072;7.800;2023-07-29T00:12:59;98998.31;;;19.77;nan
63556;BME280;49700;48.072;7.800;2023-07-29T00:15:24;98987.13;;;19.73;nan
63556;BME280;49700;48.072;7.800;2023-07-29T00:17:49;98991.97;;;19.70;nan
63556;BME280;49700;48.072;7.800;2023-07-29T00:20:15;98998.31;;;19.69;nan
63556;BME280;49700;48.072;7.800;2023-07-29T00:22:41;98979.97;;;19.65;nan
63556;BME280;49700;48.072;7.800;2023-07-29T00:25:06;98982.97;;;19.62;nan
63556;BME280;49700;48.072;7.800;2023-07-29T00:27:32;98980.31;;;19.62;nan
63556;BME280;49700;48.072;7.800;2023-07-29T00:29:57;98987.31;;;19.63;nan
63556;BME280;49700;48.072;7.800;2023-07-29T00:32:23;98989.31;;;19.61;nan
63556;BME280;49700;48.072;7.800;2023-07-29T00:34:48;98983.97;;;19.61;nan
63556;BME280;49700;48.072;7.800;2023-07-29T00:37:13;98984.66;;;19.63;nan
63556;BME280;49700;48.072;7.800;2023-07-29T00:39:39;98982.63;;;19.65;nan
63556;BME280;49700;48.072;7.800;2023-07-29T00:42:05;98978.00;;;19.67;nan
63556;BME280;49700;48.072;7.800;2023-07-29T00:44:30;98979.66;;;19.69;nan
63556;BME280;49700;48.072;7.800;2023-07-29T00:47:02;98979.00;;;19.66;nan
63556;BME280;49700;48.072;7.800;2023-07-29T00:49:29;98983.50;;;19.66;nan
63556;BME280;49700;48.072;7.800;2023-07-29T00:51:54;98976.47;;;19.65;nan
63556;BME280;49700;48.072;7.800;2023-07-29T00:54:20;98987.31;;;19.63;nan
63556;BME280;49700;48.072;7.800;2023-07-29T00:56:45;98983.16;;;19.61;nan
63556;BME280;49700;48.072;7.800;2023-07-29T00:59:11;98979.97;;;19.57;nan
63556;BME280;49700;48.072;7.800;2023-07-29T01:01:37;98979.50;;;19.54;nan
63556;BME280;49700;48.072;7.800;2023-07-29T01:04:02;98975.34;;;19.51;nan
63556;BME280;49700;48.072;7.800;2023-07-29T01:06:58;98984.16;;;19.52;nan
63556;BME280;49700;48.072;7.800;2023-07-29T01:09:41;98974.31;;;19.52;nan
63556;BME280;49700;48.072;7.800;2023-07-29T01:12:20;98972.34;;;19.46;nan
63556;BME280;49700;48.072;7.800;2023-07-29T01:17:34;98975.88;;;19.38;nan
63556;BME280;49700;48.072;7.800;2023-07-29T01:20:08;98968.06;;;19.37;nan
63556;BME280;49700;48.072;7.800;2023-07-29T01:22:37;98960.91;;;19.37;nan
63556;BME280;49700;48.072;7.800;2023-07-29T01:25:06;98960.56;;;19.40;nan
63556;BME280;49700;48.072;7.800;2023-07-29T01:27:31;98960.22;;;19.43;nan
63556;BME280;49700;48.072;7.800;2023-07-29T01:29:58;98972.34;;;19.46;nan
63556;BME280;49700;48.072;7.800;2023-07-29T01:32:43;98962.53;;;19.46;nan
63556;BME280;49700;48.072;7.800;2023-07-29T01:35:19;98968.72;;;19.47;nan
63556;BME280;49700;48.072;7.800;2023-07-29T01:37:49;98965.19;;;19.46;nan
63556;BME280;49700;48.072;7.800;2023-07-29T01:40:17;98965.69;;;19.50;nan
63556;BME280;49700;48.072;7.800;2023-07-29T01:42:43;98963.69;;;19.52;nan
63556;BME280;49700;48.072;7.800;2023-07-29T01:45:10;98965.16;;;19.55;nan
63556;BME280;49700;48.072;7.800;2023-07-29T01:47:36;98965.84;;;19.57;nan
63556;BME280;49700;48.072;7.800;2023-07-29T01:50:03;98962.34;;;19.56;nan
63556;BME280;49700;48.072;7.800;2023-07-29T01:52:29;98959.69;;;19.56;nan
63556;BME280;49700;48.072;7.800;2023-07-29T01:54:54;98949.03;;;19.56;nan
63556;BME280;49700;48.072;7.800;2023-07-29T01:57:20;98956.34;;;19.54;nan
63556;BME280;49700;48.072;7.800;2023-07-29T01:59:45;98953.69;;;19.54;nan
63556;BME280;49700;48.072;7.800;2023-07-29T02:02:11;98954.69;;;19.53;nan
63556;BME280;49700;48.072;7.800;2023-07-29T02:04:37;98948.72;;;19.51;nan
63556;BME280;49700;48.072;7.800;2023-07-29T02:07:02;98952.03;;;19.53;nan
63556;BME280;49700;48.072;7.800;2023-07-29T02:09:28;98946.72;;;19.53;nan
63556;BME280;49700;48.072;7.800;2023-07-29T02:11:54;98955.53;;;19.54;nan
63556;BME280;49700;48.072;7.800;2023-07-29T02:14:19;98949.19;;;19.55;nan
63556;BME280;49700;48.072;7.800;2023-07-29T02:16:45;98951.69;;;19.56;nan
63556;BME280;49700;48.072;7.800;2023-07-29T02:19:10;98957.69;;;19.58;nan
63556;BME280;49700;48.072;7.800;2023-07-29T02:21:36;98964.50;;;19.61;nan
63556;BME280;49700;48.072;7.800;2023-07-29T02:24:01;98963.50;;;19.62;nan
63556;BME280;49700;48.072;7.800;2023-07-29T02:26:27;98960.81;;;19.62;nan
63556;BME280;49700;48.072;7.800;2023-07-29T02:28:52;98950.31;;;19.60;nan
63556;BME280;49700;48.072;7.800;2023-07-29T02:31:21;98950.03;;;19.55;nan
63556;BME280;49700;48.072;7.800;2023-07-29T02:33:47;98947.69;;;19.52;nan
63556;BME280;49700;48.072;7.800;2023-07-29T02:36:13;98945.88;;;19.53;nan
63556;BME280;49700;48.072;7.800;2023-07-29T02:38:40;98942.38;;;19.52;nan
63556;BME280;49700;48.072;7.800;2023-07-29T02:41:05;98928.88;;;19.54;nan
63556;BME280;49700;48.072;7.800;2023-07-29T02:43:31;98938.38;;;19.56;nan
63556;BME280;49700;48.072;7.800;2023-07-29T02:45:57;98935.34;;;19.59;nan
63556;BME280;49700;48.072;7.800;2023-07-29T02:48:22;98938.03;;;19.59;nan
63556;BME280;49700;48.072;7.800;2023-07-29T02:50:48;98939.66;;;19.60;nan
63556;BME280;49700;48.072;7.800;2023-07-29T02:53:13;98928.19;;;19.60;nan
63556;BME280;49700;48.072;7.800;2023-07-29T02:55:42;98925.38;;;19.61;nan
63556;BME280;49700;48.072;7.800;2023-07-29T02:58:07;98920.88;;;19.62;nan
63556;BME280;49700;48.072;7.800;2023-07-29T03:00:33;98922.50;;;19.63;nan
63556;BME280;49700;48.072;7.800;2023-07-29T03:02:59;98937.69;;;19.62;nan
63556;BME280;49700;48.072;7.800;2023-07-29T03:05:27;98923.69;;;19.60;nan
63556;BME280;49700;48.072;7.800;2023-07-29T03:07:53;98921.03;;;19.60;nan
63556;BME280;49700;48.072;7.800;2023-07-29T03:10:18;98927.22;;;19.61;nan
63556;BME280;49700;48.072;7.800;2023-07-29T03:12:43;98937.00;;;19.60;nan
63556;BME280;49700;48.072;7.800;2023-07-29T03:15:09;98922.03;;;19.59;nan
63556;BME280;49700;48.072;7.800;2023-07-29T03:17:35;98917.72;;;19.58;nan
63556;BME280;49700;48.072;7.800;2023-07-29T03:20:00;98915.41;;;19.55;nan
63556;BME280;49700;48.072;7.800;2023-07-29T03:22:26;98903.06;;;19.54;nan
63556;BME280;49700;48.072;7.800;2023-07-29T03:24:51;98899.59;;;19.54;nan
63556;BME280;49700;48.072;7.800;2023-07-29T03:27:16;98903.44;;;19.51;nan
63556;BME280;49700;48.072;7.800;2023-07-29T03:29:42;98908.75;;;19.51;nan
63556;BME280;49700;48.072;7.800;2023-07-29T03:32:07;98907.94;;;19.51;nan
63556;BME280;49700;48.072;7.800;2023-07-29T03:34:33;98910.75;;;19.49;nan
63556;BME280;49700;48.072;7.800;2023-07-29T03:37:00;98918.59;;;19.51;nan
63556;BME280;49700;48.072;7.800;2023-07-29T03:39:26;98913.75;;;19.46;nan
63556;BME280;49700;48.072;7.800;2023-07-29T03:41:52;98923.28;;;19.40;nan
63556;BME280;49700;48.072;7.800;2023-07-29T03:44:17;98921.97;;;19.36;nan
63556;BME280;49700;48.072;7.800;2023-07-29T03:46:44;98914.28;;;19.33;nan
63556;BME280;49700;48.072;7.800;2023-07-29T03:49:10;98917.81;;;19.34;nan
63556;BME280;49700;48.072;7.800;2023-07-29T03:51:36;98913.31;;;19.34;nan
63556;BME280;49700;48.072;7.800;2023-07-29T03:54:01;98912.28;;;19.35;nan
63556;BME280;49700;48.072;7.800;2023-07-29T03:56:26;98909.47;;;19.37;nan
63556;BME280;49700;48.072;7.800;2023-07-29T03:58:52;98913.63;;;19.39;nan
63556;BME280;49700;48.072;7.800;2023-07-29T04:01:18;98905.44;;;19.41;nan
63556;BME280;49700;48.072;7.800;2023-07-29T04:03:45;98903.81;;;19.40;nan
63556;BME280;49700;48.072;7.800;2023-07-29T04:06:11;98907.13;;;19.42;nan
63556;BME280;49700;48.072;7.800;2023-07-29T04:08:37;98910.44;;;19.44;nan
63556;BME280;49700;48.072;7.800;2023-07-29T04:11:03;98905.78;;;19.46;nan
63556;BME280;49700;48.072;7.800;2023-07-29T04:13:28;98901.94;;;19.49;nan
63556;BME280;49700;48.072;7.800;2023-07-29T04:15:54;98893.28;;;19.46;nan
63556;BME280;49700;48.072;7.800;2023-07-29T04:18:19;98898.78;;;19.45;nan
63556;BME280;49700;48.072;7.800;2023-07-29T04:20:46;98911.44;;;19.43;nan
63556;BME280;49700;48.072;7.800;2023-07-29T04:23:11;98915.13;;;19.42;nan
63556;BME280;49700;48.072;7.800;2023-07-29T04:25:37;98925.44;;;19.45;nan
63556;BME280;49700;48.072;7.800;2023-07-29T04:28:02;98926.09;;;19.47;nan
63556;BME280;49700;48.072;7.800;2023-07-29T04:30:30;98924.25;;;19.48;nan
63556;BME280;49700;48.072;7.800;2023-07-29T04:32:55;98925.91;;;19.49;nan
63556;BME280;49700;48.072;7.800;2023-07-29T04:35:20;98929.38;;;19.49;nan
63556;BME280;49700;48.072;7.800;2023-07-29T04:37:46;98916.75;;;19.51;nan
63556;BME280;49700;48.072;7.800;2023-07-29T04:40:13;98929.22;;;19.51;nan
63556;BME280;49700;48.072;7.800;2023-07-29T04:42:38;98934.38;;;19.52;nan
63556;BME280;49700;48.072;7.800;2023-07-29T04:45:04;98935.88;;;19.55;nan
63556;BME280;49700;48.072;7.800;2023-07-29T04:47:31;98932.69;;;19.59;nan
63556;BME280;49700;48.072;7.800;2023-07-29T04:49:57;98930.34;;;19.64;nan
63556;BME280;49700;48.072;7.800;2023-07-29T04:52:22;98928.03;;;19.70;nan
63556;BME280;49700;48.072;7.800;2023-07-29T04:54:48;98932.00;;;19.74;nan
63556;BME280;49700;48.072;7.800;2023-07-29T04:57:13;98945.00;;;19.77;nan
63556;BME280;49700;48.072;7.800;2023-07-29T04:59:38;98940.97;;;19.81;nan
63556;BME280;49700;48.072;7.800;2023-07-29T05:02:04;98948.47;;;19.85;nan
63556;BME280;49700;48.072;7.800;2023-07-29T05:04:29;98947.28;;;19.88;nan
63556;BME280;49700;48.072;7.800;2023-07-29T05:06:55;98945.56;;;19.95;nan
63556;BME280;49700;48.072;7.800;2023-07-29T05:09:20;98947.91;;;19.98;nan
63556;BME280;49700;48.072;7.800;2023-07-29T05:11:47;98952.03;;;20.01;nan
63556;BME280;49700;48.072;7.800;2023-07-29T05:14:14;98945.72;;;20.02;nan
63556;BME280;49700;48.072;7.800;2023-07-29T05:16:41;98950.22;;;20.01;nan
63556;BME280;49700;48.072;7.800;2023-07-29T05:19:07;98947.56;;;20.01;nan
63556;BME280;49700;48.072;7.800;2023-07-29T05:21:33;98951.88;;;20.02;nan
63556;BME280;49700;48.072;7.800;2023-07-29T05:23:58;98961.19;;;20.06;nan
63556;BME280;49700;48.072;7.800;2023-07-29T05:26:24;98957.31;;;20.09;nan
63556;BME280;49700;48.072;7.800;2023-07-29T05:28:50;98953.47;;;20.11;nan
63556;BME280;49700;48.072;7.800;2023-07-29T05:31:15;98968.47;;;20.13;nan
63556;BME280;49700;48.072;7.800;2023-07-29T05:33:40;98975.81;;;20.10;nan
63556;BME280;49700;48.072;7.800;2023-07-29T05:36:06;98982.81;;;20.11;nan
63556;BME280;49700;48.072;7.800;2023-07-29T05:38:31;98978.13;;;20.14;nan
63556;BME280;49700;48.072;7.800;2023-07-29T05:40:57;98984.13;;;20.16;nan
63556;BME280;49700;48.072;7.800;2023-07-29T05:43:24;98974.13;;;20.18;nan
63556;BME280;49700;48.072;7.800;2023-07-29T05:45:50;98985.75;;;20.25;nan
63556;BME280;49700;48.072;7.800;2023-07-29T05:48:17;98986.88;;;20.30;nan
63556;BME280;49700;48.072;7.800;2023-07-29T05:50:43;98975.69;;;20.35;nan
63556;BME280;49700;48.072;7.800;2023-07-29T05:53:09;98973.16;;;20.42;nan
63556;BME280;49700;48.072;7.800;2023-07-29T05:55:34;98980.91;;;20.51;nan
63556;BME280;49700;48.072;7.800;2023-07-29T05:58:00;98993.25;;;20.61;nan
63556;BME280;49700;48.072;7.800;2023-07-29T06:00:26;98990.53;;;20.69;nan
63556;BME280;49700;48.072;7.800;2023-07-29T06:02:52;98991.44;;;20.76;nan
63556;BME280;49700;48.072;7.800;2023-07-29T06:05:20;98989.09;;;20.81;nan
63556;BME280;49700;48.072;7.800;2023-07-29T06:07:46;99000.41;;;20.83;nan
63556;BME280;49700;48.072;7.800;2023-07-29T06:10:14;98994.91;;;20.85;nan
63556;BME280;49700;48.072;7.800;2023-07-29T06:12:43;98998.41;;;20.85;nan
63556;BME280;49700;48.072;7.800;2023-07-29T06:15:09;98999.22;;;20.86;nan
63556;BME280;49700;48.072;7.800;2023-07-29T06:17:34;99002.06;;;20.84;nan
63556;BME280;49700;48.072;7.800;2023-07-29T06:20:00;99012.28;;;20.81;nan
63556;BME280;49700;48.072;7.800;2023-07-29T06:22:25;99010.97;;;20.76;nan
63556;BME280;49700;48.072;7.800;2023-07-29T06:24:50;98993.81;;;20.71;nan
63556;BME280;49700;48.072;7.800;2023-07-29T06:27:16;99006.69;;;20.67;nan
63556;BME280;49700;48.072;7.800;2023-07-29T06:29:41;99007.72;;;20.66;nan
63556;BME280;49700;48.072;7.800;2023-07-29T06:32:07;98997.66;;;20.68;nan
63556;BME280;49700;48.072;7.800;2023-07-29T06:34:32;98999.00;;;20.72;nan
63556;BME280;49700;48.072;7.800;2023-07-29T06:36:57;98994.63;;;20.80;nan
63556;BME280;49700;48.072;7.800;2023-07-29T06:39:23;99000.41;;;20.83;nan
63556;BME280;49700;48.072;7.800;2023-07-29T06:41:48;98993.53;;;20.89;nan
63556;BME280;49700;48.072;7.800;2023-07-29T06:44:16;99008.66;;;20.96;nan
63556;BME280;49700;48.072;7.800;2023-07-29T06:46:42;99011.91;;;21.07;nan
63556;BME280;49700;48.072;7.800;2023-07-29T06:49:07;99003.63;;;21.16;nan
63556;BME280;49700;48.072;7.800;2023-07-29T06:51:33;99001.56;;;21.27;nan
63556;BME280;49700;48.072;7.800;2023-07-29T06:54:00;98998.31;;;21.39;nan
63556;BME280;49700;48.072;7.800;2023-07-29T06:56:26;98999.78;;;21.57;nan
63556;BME280;49700;48.072;7.800;2023-07-29T06:58:51;98994.81;;;21.83;nan
63556;BME280;49700;48.072;7.800;2023-07-29T07:01:17;98993.47;;;22.39;nan
63556;BME280;49700;48.072;7.800;2023-07-29T07:03:42;98994.25;;;23.18;nan
63556;BME280;49700;48.072;7.800;2023-07-29T07:06:08;98987.66;;;24.19;nan
63556;BME280;49700;48.072;7.800;2023-07-29T07:08:33;98992.03;;;25.14;nan
63556;BME280;49700;48.072;7.800;2023-07-29T07:10:59;98986.09;;;26.04;nan
63556;BME280;49700;48.072;7.800;2023-07-29T07:13:24;98980.78;;;26.74;nan
63556;BME280;49700;48.072;7.800;2023-07-29T07:15:49;98977.84;;;27.32;nan
63556;BME280;49700;48.072;7.800;2023-07-29T07:18:15;98976.38;;;27.80;nan
63556;BME280;49700;48.072;7.800;2023-07-29T07:20:40;98972.56;;;28.36;nan
63556;BME280;49700;48.072;7.800;2023-07-29T07:23:06;98979.41;;;28.69;nan
63556;BME280;49700;48.072;7.800;2023-07-29T07:25:35;98975.75;;;28.63;nan
63556;BME280;49700;48.072;7.800;2023-07-29T07:28:01;98979.06;;;28.77;nan
63556;BME280;49700;48.072;7.800;2023-07-29T07:30:26;98971.00;;;29.01;nan
63556;BME280;49700;48.072;7.800;2023-07-29T07:32:52;98981.31;;;28.92;nan
63556;BME280;49700;48.072;7.800;2023-07-29T07:35:17;98972.38;;;28.80;nan
63556;BME280;49700;48.072;7.800;2023-07-29T07:37:44;98974.19;;;28.98;nan
63556;BME280;49700;48.072;7.800;2023-07-29T07:40:10;98969.88;;;29.08;nan
63556;BME280;49700;48.072;7.800;2023-07-29T07:42:35;98983.53;;;29.25;nan
63556;BME280;49700;48.072;7.800;2023-07-29T07:45:01;98975.19;;;29.39;nan
63556;BME280;49700;48.072;7.800;2023-07-29T07:47:26;98970.22;;;29.24;nan
63556;BME280;49700;48.072;7.800;2023-07-29T07:49:52;98976.56;;;29.06;nan
63556;BME280;49700;48.072;7.800;2023-07-29T07:52:17;98979.34;;;28.87;nan
63556;BME280;49700;48.072;7.800;2023-07-29T07:54:42;98971.28;;;28.69;nan
63556;BME280;49700;48.072;7.800;2023-07-29T07:57:08;98966.56;;;28.64;nan
63556;BME280;49700;48.072;7.800;2023-07-29T07:59:33;98965.63;;;28.59;nan
63556;BME280;49700;48.072;7.800;2023-07-29T08:01:58;98966.47;;;28.41;nan
63556;BME280;49700;48.072;7.800;2023-07-29T08:04:24;98963.72;;;28.29;nan
63556;BME280;49700;48.072;7.800;2023-07-29T08:06:49;98960.06;;;28.05;nan
63556;BME280;49700;48.072;7.800;2023-07-29T08:09:14;98971.72;;;27.87;nan
63556;BME280;49700;48.072;7.800;2023-07-29T08:11:40;98968.63;;;28.02;nan
63556;BME280;49700;48.072;7.800;2023-07-29T08:14:05;98965.38;;;28.30;nan
63556;BME280;49700;48.072;7.800;2023-07-29T08:16:31;98956.59;;;28.16;nan
63556;BME280;49700;48.072;7.800;2023-07-29T08:18:56;98969.72;;;27.76;nan
63556;BME280;49700;48.072;7.800;2023-07-29T08:21:21;98975.75;;;27.34;nan
63556;BME280;49700;48.072;7.800;2023-07-29T08:23:47;98964.72;;;26.92;nan
63556;BME280;49700;48.072;7.800;2023-07-29T08:26:12;98973.88;;;26.53;nan
63556;BME280;49700;48.072;7.800;2023-07-29T08:28:39;98978.22;;;26.47;nan
63556;BME280;49700;48.072;7.800;2023-07-29T08:31:05;98982.19;;;26.45;nan
63556;BME280;49700;48.072;7.800;2023-07-29T08:33:31;98985.69;;;26.45;nan
63556;BME280;49700;48.072;7.800;2023-07-29T08:35:59;98977.81;;;26.51;nan
63556;BME280;49700;48.072;7.800;2023-07-29T08:38:24;98977.13;;;26.62;nan
63556;BME280;49700;48.072;7.800;2023-07-29T08:43:35;98974.69;;;27.10;nan
63556;BME280;49700;48.072;7.800;2023-07-29T08:46:03;98978.25;;;27.36;nan
63556;BME280;49700;48.072;7.800;2023-07-29T08:48:41;98970.78;;;27.56;nan
63556;BME280;49700;48.072;7.800;2023-07-29T08:51:08;98975.44;;;27.68;nan
63556;BME280;49700;48.072;7.800;2023-07-29T08:53:34;98986.03;;;27.88;nan
63556;BME280;49700;48.072;7.800;2023-07-29T08:56:01;98976.13;;;28.18;nan
63556;BME280;49700;48.072;7.800;2023-07-29T08:58:27;98980.88;;;28.53;nan
63556;BME280;49700;48.072;7.800;2023-07-29T09:00:53;98981.81;;;28.59;nan
63556;BME280;49700;48.072;7.800;2023-07-29T09:03:19;98979.81;;;28.54;nan
63556;BME280;49700;48.072;7.800;2023-07-29T09:05:45;98983.69;;;28.47;nan
63556;BME280;49700;48.072;7.800;2023-07-29T09:08:11;98994.09;;;28.24;nan
63556;BME280;49700;48.072;7.800;2023-07-29T09:10:37;98995.63;;;28.02;nan
63556;BME280;49700;48.072;7.800;2023-07-29T09:13:04;98996.13;;;27.74;nan
63556;BME280;49700;48.072;7.800;2023-07-29T09:15:34;98995.50;;;27.53;nan
63556;BME280;49700;48.072;7.800;2023-07-29T09:18:09;98986.88;;;27.45;nan
63556;BME280;49700;48.072;7.800;2023-07-29T09:20:35;98987.94;;;27.44;nan
63556;BME280;49700;48.072;7.800;2023-07-29T09:23:00;98991.22;;;27.46;nan
63556;BME280;49700;48.072;7.800;2023-07-29T09:25:27;98979.84;;;27.44;nan
63556;BME280;49700;48.072;7.800;2023-07-29T09:27:59;98982.00;;;27.53;nan
63556;BME280;49700;48.072;7.800;2023-07-29T09:30:25;98982.69;;;27.92;nan
63556;BME280;49700;48.072;7.800;2023-07-29T09:32:57;98980.22;;;28.21;nan
63556;BME280;49700;48.072;7.800;2023-07-29T09:35:25;98970.19;;;28.28;nan
63556;BME280;49700;48.072;7.800;2023-07-29T09:37:51;98970.25;;;28.21;nan
63556;BME280;49700;48.072;7.800;2023-07-29T09:40:18;98977.69;;;28.08;nan
63556;BME280;49700;48.072;7.800;2023-07-29T09:42:50;98981.16;;;27.96;nan
63556;BME280;49700;48.072;7.800;2023-07-29T09:45:23;98987.03;;;27.93;nan
63556;BME280;49700;48.072;7.800;2023-07-29T09:47:49;98985.06;;;27.82;nan
63556;BME280;49700;48.072;7.800;2023-07-29T09:50:15;98992.97;;;27.77;nan
63556;BME280;49700;48.072;7.800;2023-07-29T09:55:54;98987.81;;;27.75;nan
63556;BME280;49700;48.072;7.800;2023-07-29T09:58:26;98991.09;;;27.77;nan
63556;BME280;49700;48.072;7.800;2023-07-29T10:00:52;98997.16;;;27.73;nan
63556;BME280;49700;48.072;7.800;2023-07-29T10:03:21;98999.94;;;27.66;nan
63556;BME280;49700;48.072;7.800;2023-07-29T10:05:46;98996.28;;;27.61;nan
63556;BME280;49700;48.072;7.800;2023-07-29T10:08:13;98992.81;;;27.53;nan
63556;BME280;49700;48.072;7.800;2023-07-29T10:10:41;99002.53;;;27.36;nan
63556;BME280;49700;48.072;7.800;2023-07-29T10:13:07;99006.97;;;27.24;nan
63556;BME280;49700;48.072;7.800;2023-07-29T10:15:33;98992.69;;;27.23;nan
63556;BME280;49700;48.072;7.800;2023-07-29T10:17:59;98993.28;;;27.25;nan
63556;BME280;49700;48.072;7.800;2023-07-29T10:20:26;99001.75;;;27.29;nan
63556;BME280;49700;48.072;7.800;2023-07-29T10:22:55;99002.81;;;27.28;nan
63556;BME280;49700;48.072;7.800;2023-07-29T10:25:24;99002.81;;;27.28;nan
63556;BME280;49700;48.072;7.800;2023-07-29T10:28:04;99003.78;;;27.33;nan
63556;BME280;49700;48.072;7.800;2023-07-29T10:30:31;98999.06;;;27.29;nan
63556;BME280;49700;48.072;7.800;2023-07-29T10:32:59;99000.75;;;27.23;nan
63556;BME280;49700;48.072;7.800;2023-07-29T10:35:26;99002.84;;;27.21;nan
63556;BME280;49700;48.072;7.800;2023-07-29T10:37:53;98993.06;;;27.27;nan
63556;BME280;49700;48.072;7.800;2023-07-29T10:40:19;98997.94;;;27.36;nan
63556;BME280;49700;48.072;7.800;2023-07-29T10:43:02;99000.97;;;27.47;nan
63556;BME280;49700;48.072;7.800;2023-07-29T10:45:39;99003.38;;;27.55;nan
63556;BME280;49700;48.072;7.800;2023-07-29T10:48:12;99002.31;;;27.56;nan
63556;BME280;49700;48.072;7.800;2023-07-29T10:50:38;98995.22;;;27.62;nan
63556;BME280;49700;48.072;7.800;2023-07-29T10:53:04;98996.13;;;27.74;nan
63556;BME280;49700;48.072;7.800;2023-07-29T10:55:32;98993.53;;;27.86;nan
63556;BME280;49700;48.072;7.800;2023-07-29T10:58:10;98995.28;;;27.98;nan
63556;BME280;49700;48.072;7.800;2023-07-29T11:00:38;98999.44;;;28.13;nan
63556;BME280;49700;48.072;7.800;2023-07-29T11:03:07;98989.09;;;28.28;nan
63556;BME280;49700;48.072;7.800;2023-07-29T11:08:30;98986.53;;;28.52;nan
63556;BME280;49700;48.072;7.800;2023-07-29T11:11:01;98984.66;;;28.64;nan
63556;BME280;49700;48.072;7.800;2023-07-29T11:13:28;98986.09;;;28.78;nan
63556;BME280;49700;48.072;7.800;2023-07-29T11:15:54;98980.41;;;28.98;nan
63556;BME280;49700;48.072;7.800;2023-07-29T11:18:21;98975.97;;;29.16;nan
63556;BME280;49700;48.072;7.800;2023-07-29T11:20:47;98971.63;;;29.26;nan
63556;BME280;49700;48.072;7.800;2023-07-29T11:23:13;98966.59;;;29.42;nan
63556;BME280;49700;48.072;7.800;2023-07-29T11:25:39;98969.41;;;29.47;nan
63556;BME280;49700;48.072;7.800;2023-07-29T11:28:04;98961.88;;;29.49;nan
63556;BME280;49700;48.072;7.800;2023-07-29T11:30:30;98957.41;;;29.54;nan
63556;BME280;49700;48.072;7.800;2023-07-29T11:32:57;98959.53;;;29.52;nan
63556;BME280;49700;48.072;7.800;2023-07-29T11:35:23;98962.59;;;29.44;nan
63556;BME280;49700;48.072;7.800;2023-07-29T11:37:50;98966.00;;;29.40;nan
63556;BME280;49700;48.072;7.800;2023-07-29T11:40:21;98963.53;;;29.38;nan
63556;BME280;49700;48.072;7.800;2023-07-29T11:42:48;98967.53;;;29.36;nan
63556;BME280;49700;48.072;7.800;2023-07-29T11:45:15;98968.34;;;29.36;nan
63556;BME280;49700;48.072;7.800;2023-07-29T11:47:41;98973.75;;;29.36;nan
63556;BME280;49700;48.072;7.800;2023-07-29T11:50:08;98956.94;;;29.34;nan
63556;BME280;49700;48.072;7.800;2023-07-29T11:52:41;98958.59;;;29.23;nan
63556;BME280;49700;48.072;7.800;2023-07-29T11:55:08;98964.22;;;29.22;nan
63556;BME280;49700;48.072;7.800;2023-07-29T11:57:36;98956.00;;;29.28;nan
63556;BME280;49700;48.072;7.800;2023-07-29T12:00:07;98940.50;;;29.36;nan
63556;BME280;49700;48.072;7.800;2023-07-29T12:02:38;98940.69;;;29.46;nan
63556;BME280;49700;48.072;7.800;2023-07-29T12:05:04;98936.56;;;29.55;nan
63556;BME280;49700;48.072;7.800;2023-07-29T12:07:31;98928.09;;;29.63;nan
63556;BME280;49700;48.072;7.800;2023-07-29T12:09:57;98929.16;;;29.74;nan
63556;BME280;49700;48.072;7.800;2023-07-29T12:12:28;98921.97;;;29.80;nan
63556;BME280;49700;48.072;7.800;2023-07-29T12:14:57;98917.00;;;29.88;nan
63556;BME280;49700;48.072;7.800;2023-07-29T12:17:23;98919.81;;;29.93;nan
63556;BME280;49700;48.072;7.800;2023-07-29T12:19:48;98925.44;;;30.04;nan
63556;BME280;49700;48.072;7.800;2023-07-29T12:22:19;98926.44;;;30.14;nan
63556;BME280;49700;48.072;7.800;2023-07-29T12:24:45;98930.66;;;30.22;nan
63556;BME280;49700;48.072;7.800;2023-07-29T12:27:14;98929.25;;;30.19;nan
63556;BME280;49700;48.072;7.800;2023-07-29T12:29:42;98935.06;;;30.11;nan
63556;BME280;49700;48.072;7.800;2023-07-29T12:32:08;98930.97;;;29.97;nan
63556;BME280;49700;48.072;7.800;2023-07-29T12:34:35;98921.00;;;29.86;nan
63556;BME280;49700;48.072;7.800;2023-07-29T12:37:02;98924.06;;;29.77;nan
63556;BME280;49700;48.072;7.800;2023-07-29T12:39:30;98927.50;;;29.73;nan
63556;BME280;49700;48.072;7.800;2023-07-29T12:41:57;98933.66;;;29.68;nan
63556;BME280;49700;48.072;7.800;2023-07-29T12:44:34;98932.78;;;29.56;nan
63556;BME280;49700;48.072;7.800;2023-07-29T12:47:01;98944.47;;;29.45;nan
63556;BME280;49700;48.072;7.800;2023-07-29T12:49:28;98940.22;;;29.37;nan
63556;BME280;49700;48.072;7.800;2023-07-29T12:51:58;98934.81;;;29.37;nan
63556;BME280;49700;48.072;7.800;2023-07-29T12:54:23;98925.19;;;29.41;nan
63556;BME280;49700;48.072;7.800;2023-07-29T12:56:49;98926.94;;;29.47;nan
63556;BME280;49700;48.072;7.800;2023-07-29T12:59:14;98940.47;;;29.47;nan
63556;BME280;49700;48.072;7.800;2023-07-29T13:01:40;98945.66;;;29.49;nan
63556;BME280;49700;48.072;7.800;2023-07-29T13:04:05;98940.56;;;29.52;nan
63556;BME280;49700;48.072;7.800;2023-07-29T13:06:31;98936.09;;;29.58;nan
63556;BME280;49700;48.072;7.800;2023-07-29T13:08:56;98941.63;;;29.63;nan
63556;BME280;49700;48.072;7.800;2023-07-29T13:11:21;98944.00;;;29.71;nan
63556;BME280;49700;48.072;7.800;2023-07-29T13:13:47;98936.09;;;29.82;nan
63556;BME280;49700;48.072;7.800;2023-07-29T13:16:13;98936.03;;;29.93;nan
63556;BME280;49700;48.072;7.800;2023-07-29T13:18:38;98948.88;;;29.98;nan
63556;BME280;49700;48.072;7.800;2023-07-29T13:21:04;98951.59;;;29.98;nan
63556;BME280;49700;48.072;7.800;2023-07-29T13:23:29;98955.00;;;29.93;nan
63556;BME280;49700;48.072;7.800;2023-07-29T13:25:55;98951.59;;;29.98;nan
63556;BME280;49700;48.072;7.800;2023-07-29T13:28:21;98961.00;;;29.95;nan
63556;BME280;49700;48.072;7.800;2023-07-29T13:30:46;98963.84;;;29.89;nan